sensor_id;sensor_type;location;lat;lon;timestamp;pressure;altitude;pressure_sealevel;temperature;humidity
20368;BME280;10343;52.402;9.796;2023-05-12T00:02:10;101022.63;;;23.58;61.82
20368;BME280;10343;52.402;9.796;2023-05-12T00:04:38;101027.56;;;23.14;63.60
20368;BME280;10343;52.402;9.796;2023-05-12T00:07:06;101024.81;;;23.01;63.97
20368;BME280;10343;52.402;9.796;2023-05-12T00:09:34;101022.44;;;22.97;63.97
20368;BME280;10343;52.402;9.796;2023-05-12T00:12:03;101018.41;;;24.04;60.06
20368;BME280;10343;52.402;9.796;2023-05-12T00:14:31;101015.00;;;23.76;60.24
20368;BME280;10343;52.402;9.796;2023-05-12T00:16:59;101016.81;;;23.51;61.39
20368;BME280;10343;52.402;9.796;2023-05-12T00:19:28;101014.50;;;23.71;60.56
20368;BME280;10343;52.402;9.796;2023-05-12T00:21:56;101025.06;;;23.37;60.89
20368;BME280;10343;52.402;9.796;2023-05-12T00:24:24;101022.66;;;24.19;59.12
20368;BME280;10343;52.402;9.796;2023-05-12T00:26:52;101016.97;;;24.11;58.51
20368;BME280;10343;52.402;9.796;2023-05-12T00:29:20;101016.19;;;24.09;58.74
20368;BME280;10343;52.402;9.796;2023-05-12T00:31:48;101023.22;;;24.36;57.58
20368;BME280;10343;52.402;9.796;2023-05-12T00:34:16;101021.50;;;24.35;57.43
20368;BME280;10343;52.402;9.796;2023-05-12T00:36:45;101024.97;;;24.37;57.46
20368;BME280;10343;52.402;9.796;2023-05-12T00:39:13;101017.84;;;24.47;57.41
20368;BME280;10343;52.402;9.796;2023-05-12T00:41:41;101025.16;;;23.98;57.64
20368;BME280;10343;52.402;9.796;2023-05-12T00:44:10;101027.50;;;23.66;59.49
20368;BME280;10343;52.402;9.796;2023-05-12T00:46:38;101025.09;;;24.35;58.59
20368;BME280;10343;52.402;9.796;2023-05-12T00:49:06;101022.63;;;24.68;57.89
20368;BME280;10343;52.402;9.796;2023-05-12T00:51:34;101024.50;;;24.43;57.09
20368;BME280;10343;52.402;9.796;2023-05-12T00:54:04;101026.47;;;24.17;57.59
20368;BME280;10343;52.402;9.796;2023-05-12T00:56:33;101032.69;;;24.06;57.85
20368;BME280;10343;52.402;9.796;2023-05-12T00:59:06;101032.44;;;24.09;58.25
20368;BME280;10343;52.402;9.796;2023-05-12T01:01:38;101025.31;;;24.08;57.83
20368;BME280;10343;52.402;9.796;2023-05-12T01:04:07;101037.63;;;23.12;61.57
20368;BME280;10343;52.402;9.796;2023-05-12T01:06:37;101040.59;;;22.82;63.67
20368;BME280;10343;52.402;9.796;2023-05-12T01:09:11;101043.69;;;22.63;64.64
20368;BME280;10343;52.402;9.796;2023-05-12T01:11:40;101039.53;;;22.97;63.27
20368;BME280;10343;52.402;9.796;2023-05-12T01:14:08;101039.53;;;22.71;63.78
20368;BME280;10343;52.402;9.796;2023-05-12T01:16:40;101036.25;;;22.66;63.86
20368;BME280;10343;52.402;9.796;2023-05-12T01:19:16;101041.25;;;22.98;62.58
20368;BME280;10343;52.402;9.796;2023-05-12T01:21:46;101037.84;;;23.35;60.79
20368;BME280;10343;52.402;9.796;2023-05-12T01:24:16;101032.81;;;23.03;62.17
20368;BME280;10343;52.402;9.796;2023-05-12T01:26:48;101035.25;;;24.20;58.52
20368;BME280;10343;52.402;9.796;2023-05-12T01:29:17;101031.44;;;23.86;58.29
20368;BME280;10343;52.402;9.796;2023-05-12T01:31:46;101032.53;;;23.83;58.11
20368;BME280;10343;52.402;9.796;2023-05-12T01:34:15;101034.34;;;23.46;59.45
20368;BME280;10343;52.402;9.796;2023-05-12T01:36:47;101037.03;;;24.33;58.27
20368;BME280;10343;52.402;9.796;2023-05-12T01:39:15;101041.50;;;23.34;59.86
20368;BME280;10343;52.402;9.796;2023-05-12T01:41:43;101041.06;;;23.40;60.86
20368;BME280;10343;52.402;9.796;2023-05-12T01:44:13;101042.25;;;23.10;60.82
20368;BME280;10343;52.402;9.796;2023-05-12T01:46:41;101043.66;;;23.54;59.25
20368;BME280;10343;52.402;9.796;2023-05-12T01:49:10;101050.19;;;23.13;61.19
20368;BME280;10343;52.402;9.796;2023-05-12T01:51:38;101055.22;;;22.92;61.64
20368;BME280;10343;52.402;9.796;2023-05-12T01:54:06;101045.84;;;23.23;61.19
20368;BME280;10343;52.402;9.796;2023-05-12T01:56:37;101048.22;;;23.41;60.22
20368;BME280;10343;52.402;9.796;2023-05-12T01:59:05;101049.72;;;24.08;58.01
20368;BME280;10343;52.402;9.796;2023-05-12T02:01:34;101050.06;;;23.28;59.42
20368;BME280;10343;52.402;9.796;2023-05-12T02:04:04;101062.13;;;22.43;63.39
20368;BME280;10343;52.402;9.796;2023-05-12T02:06:35;101058.81;;;23.44;60.62
20368;BME280;10343;52.402;9.796;2023-05-12T02:09:04;101058.59;;;23.84;58.16
20368;BME280;10343;52.402;9.796;2023-05-12T02:11:32;101066.09;;;23.94;57.54
20368;BME280;10343;52.402;9.796;2023-05-12T02:14:00;101065.91;;;23.71;58.15
20368;BME280;10343;52.402;9.796;2023-05-12T02:16:32;101069.72;;;23.04;60.75
20368;BME280;10343;52.402;9.796;2023-05-12T02:19:02;101070.47;;;23.57;59.63
20368;BME280;10343;52.402;9.796;2023-05-12T02:21:31;101065.78;;;24.22;57.69
20368;BME280;10343;52.402;9.796;2023-05-12T02:23:59;101061.53;;;23.81;57.73
20368;BME280;10343;52.402;9.796;2023-05-12T02:26:27;101066.56;;;24.12;57.03
20368;BME280;10343;52.402;9.796;2023-05-12T02:28:55;101065.28;;;23.54;58.68
20368;BME280;10343;52.402;9.796;2023-05-12T02:31:23;101070.50;;;23.45;58.80
20368;BME280;10343;52.402;9.796;2023-05-12T02:33:51;101069.44;;;23.47;58.95
20368;BME280;10343;52.402;9.796;2023-05-12T02:36:21;101071.28;;;22.68;62.38
20368;BME280;10343;52.402;9.796;2023-05-12T02:38:49;101071.94;;;22.71;62.26
20368;BME280;10343;52.402;9.796;2023-05-12T02:41:17;101069.97;;;22.61;62.41
20368;BME280;10343;52.402;9.796;2023-05-12T02:43:45;101060.38;;;22.69;63.56
20368;BME280;10343;52.402;9.796;2023-05-12T02:46:13;101061.06;;;21.77;66.23
20368;BME280;10343;52.402;9.796;2023-05-12T02:48:42;101060.88;;;21.65;67.13
20368;BME280;10343;52.402;9.796;2023-05-12T02:51:10;101059.00;;;21.51;68.39
20368;BME280;10343;52.402;9.796;2023-05-12T02:53:39;101058.44;;;22.17;64.99
20368;BME280;10343;52.402;9.796;2023-05-12T02:56:07;101039.94;;;22.65;62.67
20368;BME280;10343;52.402;9.796;2023-05-12T02:58:35;101049.44;;;23.74;58.88
20368;BME280;10343;52.402;9.796;2023-05-12T03:01:03;101050.09;;;23.90;56.96
20368;BME280;10343;52.402;9.796;2023-05-12T03:03:37;101053.59;;;23.54;57.86
20368;BME280;10343;52.402;9.796;2023-05-12T03:06:07;101058.38;;;23.12;58.97
20368;BME280;10343;52.402;9.796;2023-05-12T03:08:35;101058.03;;;23.68;57.66
20368;BME280;10343;52.402;9.796;2023-05-12T03:11:05;101062.75;;;24.27;55.88
20368;BME280;10343;52.402;9.796;2023-05-12T03:13:33;101067.72;;;23.83;56.31
20368;BME280;10343;52.402;9.796;2023-05-12T03:16:00;101066.81;;;23.58;57.27
20368;BME280;10343;52.402;9.796;2023-05-12T03:18:29;101068.47;;;22.69;59.76
20368;BME280;10343;52.402;9.796;2023-05-12T03:20:57;101072.13;;;22.55;60.85
20368;BME280;10343;52.402;9.796;2023-05-12T03:23:25;101065.03;;;22.67;61.24
20368;BME280;10343;52.402;9.796;2023-05-12T03:25:54;101069.47;;;23.07;59.75
20368;BME280;10343;52.402;9.796;2023-05-12T03:28:23;101068.75;;;23.05;59.15
20368;BME280;10343;52.402;9.796;2023-05-12T03:30:51;101067.44;;;22.98;59.74
20368;BME280;10343;52.402;9.796;2023-05-12T03:33:23;101065.94;;;22.94;59.64
20368;BME280;10343;52.402;9.796;2023-05-12T03:35:52;101071.53;;;22.90;59.93
20368;BME280;10343;52.402;9.796;2023-05-12T03:38:22;101067.44;;;22.98;59.85
20368;BME280;10343;52.402;9.796;2023-05-12T03:40:50;101073.97;;;23.21;58.46
20368;BME280;10343;52.402;9.796;2023-05-12T03:43:19;101069.09;;;23.39;58.05
20368;BME280;10343;52.402;9.796;2023-05-12T03:45:49;101074.28;;;23.16;58.48
20368;BME280;10343;52.402;9.796;2023-05-12T03:48:17;101072.50;;;22.49;61.69
20368;BME280;10343;52.402;9.796;2023-05-12T03:50:45;101067.91;;;23.30;58.96
20368;BME280;10343;52.402;9.796;2023-05-12T03:53:13;101065.06;;;23.57;57.70
20368;BME280;10343;52.402;9.796;2023-05-12T03:55:41;101067.38;;;23.38;57.45
20368;BME280;10343;52.402;9.796;2023-05-12T03:58:09;101072.66;;;23.52;57.32
20368;BME280;10343;52.402;9.796;2023-05-12T04:00:37;101070.16;;;24.12;55.45
20368;BME280;10343;52.402;9.796;2023-05-12T04:03:07;101065.50;;;23.13;57.37
20368;BME280;10343;52.402;9.796;2023-05-12T04:05:35;101074.22;;;21.96;62.26
20368;BME280;10343;52.402;9.796;2023-05-12T04:08:05;101079.09;;;22.03;63.15
20368;BME280;10343;52.402;9.796;2023-05-12T04:10:37;101086.91;;;22.50;61.27
20368;BME280;10343;52.402;9.796;2023-05-12T04:13:05;101099.13;;;22.96;59.51
20368;BME280;10343;52.402;9.796;2023-05-12T04:15:34;101098.47;;;23.82;57.03
20368;BME280;10343;52.402;9.796;2023-05-12T04:18:02;101103.81;;;23.45;57.29
20368;BME280;10343;52.402;9.796;2023-05-12T04:20:31;101105.75;;;23.95;55.03
20368;BME280;10343;52.402;9.796;2023-05-12T04:23:00;101115.19;;;23.50;56.65
20368;BME280;10343;52.402;9.796;2023-05-12T04:25:28;101109.22;;;23.71;56.45
20368;BME280;10343;52.402;9.796;2023-05-12T04:27:56;101121.56;;;23.62;56.26
20368;BME280;10343;52.402;9.796;2023-05-12T04:30:23;101114.63;;;23.71;55.80
20368;BME280;10343;52.402;9.796;2023-05-12T04:32:52;101109.88;;;24.49;54.57
20368;BME280;10343;52.402;9.796;2023-05-12T04:35:20;101116.78;;;24.66;54.00
20368;BME280;10343;52.402;9.796;2023-05-12T04:37:50;101120.47;;;23.90;55.27
20368;BME280;10343;52.402;9.796;2023-05-12T04:40:18;101124.94;;;24.77;53.52
20368;BME280;10343;52.402;9.796;2023-05-12T04:42:47;101121.16;;;23.55;55.57
20368;BME280;10343;52.402;9.796;2023-05-12T04:45:15;101132.59;;;23.33;56.42
20368;BME280;10343;52.402;9.796;2023-05-12T04:47:44;101134.03;;;22.99;57.59
20368;BME280;10343;52.402;9.796;2023-05-12T04:50:12;101134.34;;;23.21;56.95
20368;BME280;10343;52.402;9.796;2023-05-12T04:52:40;101143.44;;;22.93;58.48
20368;BME280;10343;52.402;9.796;2023-05-12T04:55:10;101133.03;;;23.66;56.16
20368;BME280;10343;52.402;9.796;2023-05-12T04:57:38;101134.31;;;24.36;54.09
20368;BME280;10343;52.402;9.796;2023-05-12T05:00:09;101141.78;;;24.93;51.68
20368;BME280;10343;52.402;9.796;2023-05-12T05:02:38;101148.19;;;23.43;55.89
20368;BME280;10343;52.402;9.796;2023-05-12T05:05:08;101143.22;;;23.75;54.79
20368;BME280;10343;52.402;9.796;2023-05-12T05:07:36;101148.41;;;24.04;53.84
20368;BME280;10343;52.402;9.796;2023-05-12T05:10:05;101147.75;;;23.87;53.41
20368;BME280;10343;52.402;9.796;2023-05-12T05:12:35;101156.72;;;24.99;51.81
20368;BME280;10343;52.402;9.796;2023-05-12T05:15:04;101158.34;;;25.13;50.99
20368;BME280;10343;52.402;9.796;2023-05-12T05:17:33;101157.78;;;24.48;51.77
20368;BME280;10343;52.402;9.796;2023-05-12T05:20:02;101150.56;;;23.99;52.92
20368;BME280;10343;52.402;9.796;2023-05-12T05:22:37;101163.13;;;23.74;53.60
20368;BME280;10343;52.402;9.796;2023-05-12T05:25:07;101160.34;;;24.63;51.50
20368;BME280;10343;52.402;9.796;2023-05-12T05:27:37;101166.59;;;25.00;50.20
20368;BME280;10343;52.402;9.796;2023-05-12T05:30:06;101165.81;;;24.50;50.73
20368;BME280;10343;52.402;9.796;2023-05-12T05:32:35;101176.47;;;24.40;51.98
20368;BME280;10343;52.402;9.796;2023-05-12T05:35:06;101167.69;;;24.98;51.14
20368;BME280;10343;52.402;9.796;2023-05-12T05:37:38;101169.31;;;24.39;51.97
20368;BME280;10343;52.402;9.796;2023-05-12T05:40:07;101168.19;;;25.38;49.10
20368;BME280;10343;52.402;9.796;2023-05-12T05:42:37;101177.69;;;25.44;49.72
20368;BME280;10343;52.402;9.796;2023-05-12T05:45:06;101176.56;;;25.11;49.52
20368;BME280;10343;52.402;9.796;2023-05-12T05:47:35;101175.72;;;25.10;48.84
20368;BME280;10343;52.402;9.796;2023-05-12T05:50:05;101176.00;;;25.77;47.80
20368;BME280;10343;52.402;9.796;2023-05-12T05:52:36;101179.09;;;25.84;48.20
20368;BME280;10343;52.402;9.796;2023-05-12T05:55:06;101173.56;;;25.97;47.46
20368;BME280;10343;52.402;9.796;2023-05-12T05:57:34;101171.78;;;26.41;46.18
20368;BME280;10343;52.402;9.796;2023-05-12T06:00:06;101176.44;;;26.73;45.28
20368;BME280;10343;52.402;9.796;2023-05-12T06:02:49;101188.34;;;25.70;46.71
20368;BME280;10343;52.402;9.796;2023-05-12T06:05:21;101192.06;;;25.80;46.54
20368;BME280;10343;52.402;9.796;2023-05-12T06:07:49;101184.59;;;26.61;44.95
20368;BME280;10343;52.402;9.796;2023-05-12T06:10:18;101199.25;;;26.15;46.04
20368;BME280;10343;52.402;9.796;2023-05-12T06:12:48;101190.28;;;25.45;46.84
20368;BME280;10343;52.402;9.796;2023-05-12T06:15:18;101196.66;;;25.33;45.88
20368;BME280;10343;52.402;9.796;2023-05-12T06:17:48;101202.00;;;25.10;47.50
20368;BME280;10343;52.402;9.796;2023-05-12T06:20:16;101202.50;;;25.15;47.28
20368;BME280;10343;52.402;9.796;2023-05-12T06:22:44;101196.53;;;26.15;44.88
20368;BME280;10343;52.402;9.796;2023-05-12T06:25:13;101206.00;;;25.87;45.13
20368;BME280;10343;52.402;9.796;2023-05-12T06:27:41;101210.03;;;25.47;46.33
20368;BME280;10343;52.402;9.796;2023-05-12T06:30:11;101211.09;;;25.80;45.56
20368;BME280;10343;52.402;9.796;2023-05-12T06:32:43;101213.81;;;25.33;46.22
20368;BME280;10343;52.402;9.796;2023-05-12T06:35:11;101208.81;;;25.63;46.01
20368;BME280;10343;52.402;9.796;2023-05-12T06:37:39;101217.44;;;24.85;48.05
20368;BME280;10343;52.402;9.796;2023-05-12T06:40:13;101220.09;;;23.85;50.06
20368;BME280;10343;52.402;9.796;2023-05-12T06:42:41;101215.69;;;24.47;49.58
20368;BME280;10343;52.402;9.796;2023-05-12T06:45:09;101222.91;;;24.97;48.32
20368;BME280;10343;52.402;9.796;2023-05-12T06:47:42;101213.81;;;24.85;47.28
20368;BME280;10343;52.402;9.796;2023-05-12T06:50:10;101219.66;;;24.91;48.71
20368;BME280;10343;52.402;9.796;2023-05-12T06:52:39;101222.69;;;23.74;51.54
20368;BME280;10343;52.402;9.796;2023-05-12T06:55:07;101217.06;;;23.77;52.21
20368;BME280;10343;52.402;9.796;2023-05-12T06:57:36;101217.47;;;23.84;50.67
20368;BME280;10343;52.402;9.796;2023-05-12T07:00:05;101221.06;;;24.60;47.77
20368;BME280;10343;52.402;9.796;2023-05-12T07:02:33;101219.66;;;25.16;46.19
20368;BME280;10343;52.402;9.796;2023-05-12T07:05:03;101217.41;;;24.61;46.57
20368;BME280;10343;52.402;9.796;2023-05-12T07:07:31;101219.38;;;26.35;42.94
20368;BME280;10343;52.402;9.796;2023-05-12T07:09:59;101221.69;;;25.83;42.57
20368;BME280;10343;52.402;9.796;2023-05-12T07:12:27;101222.91;;;25.79;43.11
20368;BME280;10343;52.402;9.796;2023-05-12T07:14:55;101221.72;;;26.28;41.90
20368;BME280;10343;52.402;9.796;2023-05-12T07:17:23;101229.56;;;25.64;43.08
20368;BME280;10343;52.402;9.796;2023-05-12T07:19:51;101235.97;;;25.51;43.10
20368;BME280;10343;52.402;9.796;2023-05-12T07:22:21;101224.00;;;25.54;43.41
20368;BME280;10343;52.402;9.796;2023-05-12T07:24:50;101212.72;;;26.83;41.48
20368;BME280;10343;52.402;9.796;2023-05-12T07:27:18;101229.91;;;25.59;42.18
20368;BME280;10343;52.402;9.796;2023-05-12T07:29:46;101226.28;;;26.28;41.76
20368;BME280;10343;52.402;9.796;2023-05-12T07:32:15;101218.59;;;26.56;40.65
20368;BME280;10343;52.402;9.796;2023-05-12T07:34:43;101226.41;;;26.49;40.30
20368;BME280;10343;52.402;9.796;2023-05-12T07:37:11;101218.69;;;26.66;41.22
20368;BME280;10343;52.402;9.796;2023-05-12T07:39:41;101229.59;;;25.75;42.00
20368;BME280;10343;52.402;9.796;2023-05-12T07:42:09;101224.69;;;26.14;41.82
20368;BME280;10343;52.402;9.796;2023-05-12T07:44:37;101229.56;;;27.63;40.10
20368;BME280;10343;52.402;9.796;2023-05-12T07:47:05;101227.22;;;26.84;39.93
20368;BME280;10343;52.402;9.796;2023-05-12T07:49:34;101225.50;;;27.57;38.62
20368;BME280;10343;52.402;9.796;2023-05-12T07:52:02;101221.31;;;27.00;38.20
20368;BME280;10343;52.402;9.796;2023-05-12T07:54:30;101227.56;;;26.90;38.93
20368;BME280;10343;52.402;9.796;2023-05-12T07:56:59;101214.44;;;27.70;37.59
20368;BME280;10343;52.402;9.796;2023-05-12T07:59:27;101224.38;;;26.62;38.42
20368;BME280;10343;52.402;9.796;2023-05-12T08:01:55;101225.06;;;26.87;37.61
20368;BME280;10343;52.402;9.796;2023-05-12T08:04:24;101224.72;;;26.92;37.71
20368;BME280;10343;52.402;9.796;2023-05-12T08:06:52;101228.00;;;27.28;37.89
20368;BME280;10343;52.402;9.796;2023-05-12T08:09:20;101231.44;;;26.54;37.97
20368;BME280;10343;52.402;9.796;2023-05-12T08:11:49;101228.66;;;26.33;38.11
20368;BME280;10343;52.402;9.796;2023-05-12T08:14:20;101225.00;;;27.63;36.25
20368;BME280;10343;52.402;9.796;2023-05-12T08:16:48;101229.78;;;28.93;35.33
20368;BME280;10343;52.402;9.796;2023-05-12T08:19:16;101220.13;;;27.88;34.96
20368;BME280;10343;52.402;9.796;2023-05-12T08:21:44;101238.94;;;27.49;35.30
20368;BME280;10343;52.402;9.796;2023-05-12T08:24:15;101231.06;;;27.77;34.97
20368;BME280;10343;52.402;9.796;2023-05-12T08:26:45;101231.38;;;28.76;33.86
20368;BME280;10343;52.402;9.796;2023-05-12T08:29:13;101230.66;;;29.23;33.14
20368;BME280;10343;52.402;9.796;2023-05-12T08:31:43;101232.03;;;27.66;34.43
20368;BME280;10343;52.402;9.796;2023-05-12T08:34:11;101233.50;;;27.17;35.13
20368;BME280;10343;52.402;9.796;2023-05-12T08:36:39;101235.25;;;26.62;35.53
20368;BME280;10343;52.402;9.796;2023-05-12T08:39:08;101235.16;;;27.40;35.06
20368;BME280;10343;52.402;9.796;2023-05-12T08:41:42;101246.31;;;28.01;33.92
20368;BME280;10343;52.402;9.796;2023-05-12T08:44:12;101232.00;;;28.49;33.07
20368;BME280;10343;52.402;9.796;2023-05-12T08:46:42;101224.34;;;29.03;32.56
20368;BME280;10343;52.402;9.796;2023-05-12T08:49:13;101232.06;;;28.69;32.66
20368;BME280;10343;52.402;9.796;2023-05-12T08:51:44;101223.63;;;28.31;33.86
20368;BME280;10343;52.402;9.796;2023-05-12T08:54:25;101238.53;;;28.27;33.54
20368;BME280;10343;52.402;9.796;2023-05-12T08:56:56;101233.25;;;27.52;34.42
20368;BME280;10343;52.402;9.796;2023-05-12T08:59:27;101228.38;;;28.48;33.66
20368;BME280;10343;52.402;9.796;2023-05-12T09:02:00;101232.59;;;28.62;32.14
20368;BME280;10343;52.402;9.796;2023-05-12T09:04:30;101239.38;;;27.33;34.43
20368;BME280;10343;52.402;9.796;2023-05-12T09:06:59;101239.41;;;27.54;34.20
20368;BME280;10343;52.402;9.796;2023-05-12T09:09:27;101228.66;;;28.36;33.70
20368;BME280;10343;52.402;9.796;2023-05-12T09:12:00;101228.06;;;29.02;32.85
20368;BME280;10343;52.402;9.796;2023-05-12T09:14:30;101227.53;;;28.48;32.91
20368;BME280;10343;52.402;9.796;2023-05-12T09:17:03;101231.41;;;28.05;33.83
20368;BME280;10343;52.402;9.796;2023-05-12T09:19:32;101233.41;;;29.33;32.88
20368;BME280;10343;52.402;9.796;2023-05-12T09:22:03;101236.84;;;27.84;34.09
20368;BME280;10343;52.402;9.796;2023-05-12T09:24:35;101240.50;;;27.31;35.03
20368;BME280;10343;52.402;9.796;2023-05-12T09:27:03;101235.41;;;28.01;34.08
20368;BME280;10343;52.402;9.796;2023-05-12T09:29:32;101233.97;;;27.85;34.51
20368;BME280;10343;52.402;9.796;2023-05-12T09:32:15;101241.97;;;26.70;36.06
20368;BME280;10343;52.402;9.796;2023-05-12T09:34:43;101240.44;;;27.21;35.57
20368;BME280;10343;52.402;9.796;2023-05-12T09:37:13;101238.50;;;27.44;34.73
20368;BME280;10343;52.402;9.796;2023-05-12T09:39:41;101236.16;;;27.07;36.10
20368;BME280;10343;52.402;9.796;2023-05-12T09:42:11;101238.53;;;27.00;35.59
20368;BME280;10343;52.402;9.796;2023-05-12T09:44:40;101245.47;;;27.25;35.28
20368;BME280;10343;52.402;9.796;2023-05-12T09:47:09;101234.88;;;27.86;33.55
20368;BME280;10343;52.402;9.796;2023-05-12T09:49:44;101239.13;;;27.57;33.29
20368;BME280;10343;52.402;9.796;2023-05-12T09:52:14;101238.94;;;27.49;32.78
20368;BME280;10343;52.402;9.796;2023-05-12T09:54:43;101243.03;;;28.07;32.82
20368;BME280;10343;52.402;9.796;2023-05-12T09:57:12;101238.53;;;27.75;32.98
20368;BME280;10343;52.402;9.796;2023-05-12T09:59:43;101241.91;;;27.67;33.04
20368;BME280;10343;52.402;9.796;2023-05-12T10:02:13;101243.13;;;27.53;33.35
20368;BME280;10343;52.402;9.796;2023-05-12T10:04:49;101233.00;;;28.07;32.15
20368;BME280;10343;52.402;9.796;2023-05-12T10:07:21;101226.91;;;28.66;31.04
20368;BME280;10343;52.402;9.796;2023-05-12T10:09:49;101238.03;;;28.12;32.10
20368;BME280;10343;52.402;9.796;2023-05-12T10:12:18;101232.78;;;28.30;32.36
20368;BME280;10343;52.402;9.796;2023-05-12T10:14:47;101238.22;;;28.20;32.53
20368;BME280;10343;52.402;9.796;2023-05-12T10:17:17;101246.34;;;28.51;30.26
20368;BME280;10343;52.402;9.796;2023-05-12T10:19:48;101248.28;;;27.03;31.36
20368;BME280;10343;52.402;9.796;2023-05-12T10:22:18;101235.69;;;27.55;31.21
20368;BME280;10343;52.402;9.796;2023-05-12T10:24:47;101233.56;;;28.11;30.97
20368;BME280;10343;52.402;9.796;2023-05-12T10:27:17;101242.84;;;28.29;30.43
20368;BME280;10343;52.402;9.796;2023-05-12T10:29:46;101237.66;;;28.26;31.01
20368;BME280;10343;52.402;9.796;2023-05-12T10:32:17;101247.06;;;27.60;32.30
20368;BME280;10343;52.402;9.796;2023-05-12T10:34:45;101240.00;;;29.11;29.15
20368;BME280;10343;52.402;9.796;2023-05-12T10:37:15;101239.69;;;28.75;30.22
20368;BME280;10343;52.402;9.796;2023-05-12T10:39:50;101240.31;;;30.14;28.84
20368;BME280;10343;52.402;9.796;2023-05-12T10:42:20;101251.50;;;27.83;30.09
20368;BME280;10343;52.402;9.796;2023-05-12T10:44:52;101247.91;;;28.94;28.63
20368;BME280;10343;52.402;9.796;2023-05-12T10:47:23;101249.34;;;28.98;29.15
20368;BME280;10343;52.402;9.796;2023-05-12T10:49:55;101244.06;;;28.56;28.64
20368;BME280;10343;52.402;9.796;2023-05-12T10:52:26;101242.59;;;28.83;28.48
20368;BME280;10343;52.402;9.796;2023-05-12T10:54:59;101247.91;;;28.85;28.78
20368;BME280;10343;52.402;9.796;2023-05-12T10:57:28;101246.16;;;31.03;26.69
20368;BME280;10343;52.402;9.796;2023-05-12T10:59:58;101241.34;;;30.03;27.47
20368;BME280;10343;52.402;9.796;2023-05-12T11:02:29;101256.09;;;28.44;29.15
20368;BME280;10343;52.402;9.796;2023-05-12T11:05:03;101237.84;;;29.54;28.05
20368;BME280;10343;52.402;9.796;2023-05-12T11:07:34;101246.56;;;30.24;26.37
20368;BME280;10343;52.402;9.796;2023-05-12T11:10:04;101247.06;;;29.13;27.06
20368;BME280;10343;52.402;9.796;2023-05-12T11:12:34;101255.19;;;29.72;27.47
20368;BME280;10343;52.402;9.796;2023-05-12T11:15:04;101244.97;;;29.84;27.63
20368;BME280;10343;52.402;9.796;2023-05-12T11:17:37;101241.31;;;29.36;28.45
20368;BME280;10343;52.402;9.796;2023-05-12T11:20:07;101239.66;;;30.58;27.17
20368;BME280;10343;52.402;9.796;2023-05-12T11:22:39;101247.63;;;29.37;27.63
20368;BME280;10343;52.402;9.796;2023-05-12T11:25:09;101243.88;;;29.18;27.94
20368;BME280;10343;52.402;9.796;2023-05-12T11:27:38;101252.69;;;28.61;28.18
20368;BME280;10343;52.402;9.796;2023-05-12T11:30:10;101244.00;;;30.23;25.96
20368;BME280;10343;52.402;9.796;2023-05-12T11:32:39;101241.50;;;30.29;26.33
20368;BME280;10343;52.402;9.796;2023-05-12T11:35:09;101256.25;;;29.52;25.42
20368;BME280;10343;52.402;9.796;2023-05-12T11:37:39;101240.81;;;29.90;25.04
20368;BME280;10343;52.402;9.796;2023-05-12T11:40:15;101248.09;;;30.09;25.05
20368;BME280;10343;52.402;9.796;2023-05-12T11:42:44;101256.53;;;29.58;25.49
20368;BME280;10343;52.402;9.796;2023-05-12T11:45:18;101255.38;;;29.61;24.33
20368;BME280;10343;52.402;9.796;2023-05-12T11:47:48;101250.50;;;29.06;25.17
20368;BME280;10343;52.402;9.796;2023-05-12T11:50:21;101245.53;;;29.97;24.20
20368;BME280;10343;52.402;9.796;2023-05-12T11:52:51;101247.03;;;29.62;25.16
20368;BME280;10343;52.402;9.796;2023-05-12T11:55:23;101242.03;;;29.48;25.32
20368;BME280;10343;52.402;9.796;2023-05-12T11:57:57;101236.81;;;29.64;24.67
20368;BME280;10343;52.402;9.796;2023-05-12T12:00:27;101241.63;;;30.00;24.27
20368;BME280;10343;52.402;9.796;2023-05-12T12:03:10;101248.50;;;30.14;23.12
20368;BME280;10343;52.402;9.796;2023-05-12T12:05:39;101242.88;;;30.15;23.12
20368;BME280;10343;52.402;9.796;2023-05-12T12:08:11;101255.91;;;29.84;23.81
20368;BME280;10343;52.402;9.796;2023-05-12T12:10:42;101248.03;;;30.19;23.89
20368;BME280;10343;52.402;9.796;2023-05-12T12:13:11;101245.16;;;31.48;22.55
20368;BME280;10343;52.402;9.796;2023-05-12T12:15:39;101233.28;;;31.21;22.61
20368;BME280;10343;52.402;9.796;2023-05-12T12:18:07;101238.16;;;30.36;24.00
20368;BME280;10343;52.402;9.796;2023-05-12T12:20:35;101234.03;;;32.28;22.34
20368;BME280;10343;52.402;9.796;2023-05-12T12:23:04;101242.41;;;30.76;23.90
20368;BME280;10343;52.402;9.796;2023-05-12T12:25:34;101242.75;;;30.45;24.25
20368;BME280;10343;52.402;9.796;2023-05-12T12:28:03;101258.78;;;29.92;24.20
20368;BME280;10343;52.402;9.796;2023-05-12T12:30:32;101261.16;;;29.48;25.22
20368;BME280;10343;52.402;9.796;2023-05-12T12:33:00;101256.09;;;29.43;25.79
20368;BME280;10343;52.402;9.796;2023-05-12T12:35:31;101248.03;;;28.83;26.05
20368;BME280;10343;52.402;9.796;2023-05-12T12:37:59;101252.31;;;29.74;25.48
20368;BME280;10343;52.402;9.796;2023-05-12T12:40:28;101237.72;;;30.68;24.47
20368;BME280;10343;52.402;9.796;2023-05-12T12:42:58;101226.56;;;30.97;23.60
20368;BME280;10343;52.402;9.796;2023-05-12T12:45:26;101242.69;;;29.89;24.75
20368;BME280;10343;52.402;9.796;2023-05-12T12:47:54;101240.19;;;30.33;23.99
20368;BME280;10343;52.402;9.796;2023-05-12T12:50:23;101238.66;;;28.76;24.90
20368;BME280;10343;52.402;9.796;2023-05-12T12:52:53;101239.56;;;30.49;23.34
20368;BME280;10343;52.402;9.796;2023-05-12T12:55:21;101235.75;;;31.24;22.67
20368;BME280;10343;52.402;9.796;2023-05-12T12:57:50;101242.38;;;30.30;22.88
20368;BME280;10343;52.402;9.796;2023-05-12T13:00:20;101239.09;;;30.16;22.96
20368;BME280;10343;52.402;9.796;2023-05-12T13:02:50;101217.78;;;31.48;22.11